createdAt,value
2023-04-08T00:01:15.434Z,13.40
2023-04-08T00:03:44.097Z,13.50
2023-04-08T00:06:12.899Z,13.70
2023-04-08T00:08:41.450Z,13.60
2023-04-08T00:11:09.859Z,13.60
2023-04-08T00:13:38.360Z,13.90
2023-04-08T00:16:06.899Z,13.30
2023-04-08T00:18:38.244Z,13.20
2023-04-08T00:21:06.834Z,13.40
2023-04-08T00:23:35.533Z,13.60
2023-04-08T00:26:04.037Z,13.80
2023-04-08T00:28:32.974Z,13.90
2023-04-08T00:31:01.437Z,13.50
2023-04-08T00:33:30.118Z,13.50
2023-04-08T00:35:58.553Z,13.60
2023-04-08T00:38:27.075Z,13.80
2023-04-08T00:40:55.449Z,13.90
2023-04-08T00:43:23.933Z,14.00
2023-04-08T00:45:52.622Z,13.90
2023-04-08T00:48:21.045Z,13.80
2023-04-08T00:50:49.446Z,13.90
2023-04-08T00:53:20.559Z,13.80
2023-04-08T00:55:48.967Z,13.80
2023-04-08T00:58:17.884Z,13.90
2023-04-08T01:00:59.668Z,14.20
2023-04-08T01:03:42.069Z,13.80
2023-04-08T01:06:52.219Z,13.50
2023-04-08T01:09:24.669Z,13.40
2023-04-08T01:11:54.989Z,13.20
2023-04-08T01:14:26.952Z,12.80
2023-04-08T01:16:58.340Z,12.70
2023-04-08T01:19:43.082Z,12.40
2023-04-08T01:22:14.281Z,12.40
2023-04-08T01:24:45.412Z,12.40
2023-04-08T01:27:15.510Z,12.50
2023-04-08T01:29:45.513Z,12.50
2023-04-08T01:32:17.499Z,12.30
2023-04-08T01:34:47.119Z,12.20
2023-04-08T01:37:16.948Z,12.10
2023-04-08T01:39:46.617Z,12.20
2023-04-08T01:42:16.254Z,12.10
2023-04-08T01:44:45.294Z,12.00
2023-04-08T01:47:16.042Z,12.00
2023-04-08T01:49:45.423Z,11.80
2023-04-08T01:52:16.124Z,11.80
2023-04-08T01:54:44.547Z,11.80
2023-04-08T01:57:18.605Z,11.60
2023-04-08T01:59:52.310Z,11.70
2023-04-08T02:02:25.753Z,11.90
2023-04-08T02:04:55.675Z,11.70
2023-04-08T02:07:24.268Z,11.70
2023-04-08T02:09:52.941Z,11.80
2023-04-08T02:12:21.484Z,11.80
2023-04-08T02:14:50.229Z,11.80
2023-04-08T02:17:28.377Z,11.60
2023-04-08T02:20:08.889Z,11.70
2023-04-08T02:22:42.918Z,11.60
2023-04-08T02:25:16.992Z,11.70
2023-04-08T02:27:49.590Z,11.40
2023-04-08T02:30:19.164Z,11.50
2023-04-08T02:32:48.806Z,11.50
2023-04-08T02:35:18.345Z,11.50
2023-04-08T02:37:51.189Z,11.30
2023-04-08T02:40:31.312Z,11.20
2023-04-08T02:43:00.754Z,10.90
2023-04-08T02:45:38.364Z,10.60
2023-04-08T02:48:07.149Z,10.60
2023-04-08T02:50:35.620Z,10.40
2023-04-08T02:53:04.650Z,10.50
2023-04-08T02:55:33.068Z,10.60
2023-04-08T02:58:01.439Z,10.30
2023-04-08T03:00:29.939Z,10.10
2023-04-08T03:02:58.469Z,9.90
2023-04-08T03:05:27.936Z,9.80
2023-04-08T03:07:56.361Z,9.80
2023-04-08T03:10:24.857Z,9.60
2023-04-08T03:12:53.400Z,9.60
2023-04-08T03:15:22.101Z,9.70
2023-04-08T03:17:50.670Z,9.40
2023-04-08T03:20:19.149Z,9.50
2023-04-08T03:22:47.613Z,9.40
2023-04-08T03:25:16.613Z,9.20
2023-04-08T03:27:45.071Z,9.00
2023-04-08T03:30:14.095Z,9.10
2023-04-08T03:32:42.721Z,9.10
2023-04-08T03:35:11.291Z,9.10
2023-04-08T03:37:39.724Z,9.10
2023-04-08T03:40:08.888Z,8.90
2023-04-08T03:42:37.346Z,8.90
2023-04-08T03:45:06.216Z,8.80
2023-04-08T03:47:34.931Z,8.70
2023-04-08T03:50:03.361Z,8.90
2023-04-08T03:52:31.949Z,8.70
2023-04-08T03:55:00.331Z,8.50
2023-04-08T03:57:28.758Z,8.60
2023-04-08T03:59:57.489Z,8.40
2023-04-08T04:02:26.090Z,8.10
2023-04-08T04:04:54.679Z,8.00
2023-04-08T04:07:23.259Z,7.90
2023-04-08T04:09:54.961Z,7.80
2023-04-08T04:12:23.525Z,7.70
2023-04-08T04:14:52.078Z,7.80
2023-04-08T04:17:20.525Z,7.70
2023-04-08T04:19:48.933Z,7.60
2023-04-08T04:22:17.526Z,7.60
2023-04-08T04:24:49.954Z,7.50
2023-04-08T04:27:18.539Z,7.30
2023-04-08T04:29:46.949Z,7.20
2023-04-08T04:32:15.475Z,7.30
2023-04-08T04:34:45.234Z,7.10
2023-04-08T04:37:14.530Z,7.10
2023-04-08T04:39:42.963Z,7.00
2023-04-08T04:42:11.563Z,6.90
2023-04-08T04:44:40.017Z,6.90
2023-04-08T04:47:08.458Z,6.80
2023-04-08T04:49:36.839Z,6.80
2023-04-08T04:52:06.148Z,6.60
2023-04-08T04:54:34.638Z,6.60
2023-04-08T04:57:03.071Z,6.60
2023-04-08T04:59:31.588Z,6.50
2023-04-08T05:02:00.302Z,6.60
2023-04-08T05:04:28.780Z,6.50
2023-04-08T05:06:57.160Z,6.50
2023-04-08T05:09:25.705Z,6.50
2023-04-08T05:11:54.128Z,6.40
2023-04-08T05:14:22.581Z,6.30
2023-04-08T05:16:51.037Z,6.20
2023-04-08T05:19:19.507Z,6.30
2023-04-08T05:21:47.924Z,6.30
2023-04-08T05:24:16.542Z,6.30
2023-04-08T05:26:44.988Z,6.30
2023-04-08T05:29:13.426Z,6.60
2023-04-08T05:31:42.052Z,6.60
2023-04-08T05:34:12.926Z,6.60
2023-04-08T05:36:41.780Z,6.60
2023-04-08T05:39:10.186Z,6.60
2023-04-08T05:41:38.551Z,6.70
2023-04-08T05:44:07.158Z,6.70
2023-04-08T05:46:35.581Z,6.90
2023-04-08T05:49:03.999Z,6.90
2023-04-08T05:51:32.455Z,7.00
2023-04-08T05:54:00.994Z,7.20
2023-04-08T05:56:29.495Z,7.10
2023-04-08T05:58:57.889Z,7.10
2023-04-08T06:01:27.089Z,6.80
2023-04-08T06:03:57.220Z,7.20
2023-04-08T06:06:29.230Z,7.20
2023-04-08T06:08:57.598Z,7.30
2023-04-08T06:11:26.172Z,7.30
2023-04-08T06:13:54.589Z,7.20
2023-04-08T06:16:23.034Z,7.30
2023-04-08T06:18:51.812Z,7.60
2023-04-08T06:21:20.604Z,7.40
2023-04-08T06:23:49.192Z,7.60
2023-04-08T06:26:17.795Z,7.50
2023-04-08T06:28:46.421Z,7.70
2023-04-08T06:31:14.833Z,7.70
2023-04-08T06:33:43.245Z,7.80
2023-04-08T06:36:14.069Z,7.80
2023-04-08T06:38:42.485Z,7.90
2023-04-08T06:41:11.181Z,7.90
2023-04-08T06:43:39.601Z,8.00
2023-04-08T06:46:08.399Z,8.00
2023-04-08T06:48:38.428Z,8.10
2023-04-08T06:51:08.599Z,8.10
2023-04-08T06:53:37.050Z,8.10
2023-04-08T06:56:05.664Z,8.20
2023-04-08T06:58:34.157Z,8.20
2023-04-08T07:01:04.013Z,8.20
2023-04-08T07:03:32.599Z,8.40
2023-04-08T07:06:01.272Z,8.30
2023-04-08T07:08:29.670Z,8.00
2023-04-08T07:10:58.248Z,8.30
2023-04-08T07:13:26.724Z,8.30
2023-04-08T07:15:55.109Z,8.40
2023-04-08T07:18:24.394Z,8.40
2023-04-08T07:20:54.946Z,8.50
2023-04-08T07:23:23.960Z,8.20
2023-04-08T07:25:52.352Z,8.30
2023-04-08T07:28:21.289Z,8.30
2023-04-08T07:30:49.714Z,8.30
2023-04-08T07:33:18.220Z,8.30
2023-04-08T07:35:46.700Z,8.10
2023-04-08T07:38:15.143Z,8.00
2023-04-08T07:40:43.554Z,7.80
2023-04-08T07:43:12.132Z,7.70
2023-04-08T07:45:40.572Z,7.70
2023-04-08T07:48:09.053Z,7.70
2023-04-08T07:51:09.255Z,7.80
2023-04-08T07:53:28.679Z,7.60
2023-04-08T07:55:57.124Z,7.90
2023-04-08T07:58:26.113Z,7.90
2023-04-08T08:00:54.874Z,7.90
2023-04-08T08:03:23.464Z,7.90
2023-04-08T08:05:52.019Z,7.90
2023-04-08T08:08:20.431Z,8.10
2023-04-08T08:10:48.914Z,8.20
2023-04-08T08:13:19.213Z,8.20
2023-04-08T08:15:47.680Z,8.20
2023-04-08T08:18:16.301Z,8.20
2023-04-08T08:20:44.789Z,8.30
2023-04-08T08:23:13.438Z,8.00
2023-04-08T08:25:41.917Z,8.40
2023-04-08T08:28:10.332Z,8.10
2023-04-08T08:30:39.339Z,8.20
2023-04-08T08:33:08.092Z,8.00
2023-04-08T08:35:36.662Z,8.20
2023-04-08T08:38:05.074Z,8.10
2023-04-08T08:40:33.844Z,8.00
2023-04-08T08:43:02.435Z,8.00
2023-04-08T08:45:30.995Z,8.10
2023-04-08T08:47:59.569Z,8.10
2023-04-08T08:50:28.882Z,8.10
2023-04-08T08:52:57.295Z,8.10
2023-04-08T08:57:57.483Z,8.10
2023-04-08T09:00:40.390Z,8.10
2023-04-08T09:03:20.651Z,8.10
2023-04-08T09:05:53.822Z,8.00
2023-04-08T09:08:35.486Z,8.00
2023-04-08T09:11:18.728Z,8.10
2023-04-08T09:13:47.830Z,8.10
2023-04-08T09:16:19.024Z,8.20
2023-04-08T09:18:49.804Z,8.20
2023-04-08T09:21:19.310Z,8.10
2023-04-08T09:23:49.733Z,8.10
2023-04-08T09:26:20.316Z,8.10
2023-04-08T09:29:18.830Z,8.50
2023-04-08T09:31:57.577Z,8.20
2023-04-08T09:34:28.118Z,8.20
2023-04-08T09:36:57.379Z,8.20
2023-04-08T09:39:25.850Z,8.10
2023-04-08T09:41:55.756Z,8.10
2023-04-08T09:44:27.631Z,8.20
2023-04-08T09:47:05.352Z,8.20
2023-04-08T09:49:57.220Z,8.20
2023-04-08T09:52:46.048Z,7.90
2023-04-08T09:55:17.208Z,8.00
2023-04-08T09:58:02.993Z,8.10
2023-04-08T10:00:39.838Z,7.90
2023-04-08T10:03:26.396Z,7.90
2023-04-08T10:05:57.483Z,7.90
2023-04-08T10:08:28.090Z,8.00
2023-04-08T10:10:57.238Z,7.90
2023-04-08T10:13:26.898Z,7.90
2023-04-08T10:16:23.600Z,8.00
2023-04-08T10:18:56.555Z,8.00
2023-04-08T10:21:49.499Z,8.00
2023-04-08T10:24:19.568Z,8.10
2023-04-08T10:26:49.673Z,8.00
2023-04-08T10:29:22.166Z,8.10
2023-04-08T10:31:54.529Z,8.10
2023-04-08T10:34:28.101Z,8.00
2023-04-08T10:36:59.678Z,8.20
2023-04-08T10:39:28.347Z,8.20
2023-04-08T10:41:57.233Z,8.30
2023-04-08T10:44:27.702Z,8.20
2023-04-08T10:46:56.705Z,8.20
2023-04-08T10:49:34.671Z,8.50
2023-04-08T10:52:07.565Z,8.50
2023-04-08T10:54:35.993Z,8.30
2023-04-08T10:57:04.673Z,8.20
2023-04-08T10:59:33.827Z,8.20
2023-04-08T11:02:03.245Z,8.30
2023-04-08T11:04:31.996Z,8.30
2023-04-08T11:07:00.651Z,8.50
2023-04-08T11:09:29.030Z,8.20
2023-04-08T11:11:58.504Z,8.20
2023-04-08T11:14:27.612Z,8.50
2023-04-08T11:16:56.082Z,8.40
2023-04-08T11:19:25.715Z,8.40
2023-04-08T11:21:55.158Z,8.40
2023-04-08T11:24:23.674Z,8.50
2023-04-08T11:26:52.309Z,8.30
2023-04-08T11:29:22.057Z,8.30
2023-04-08T11:31:52.081Z,8.30
2023-04-08T11:34:27.093Z,8.40
2023-04-08T11:36:57.620Z,8.50
2023-04-08T11:39:27.307Z,8.40
2023-04-08T11:41:56.152Z,8.40
2023-04-08T11:44:33.185Z,8.80
2023-04-08T11:47:02.940Z,8.50
2023-04-08T11:49:46.569Z,8.60
2023-04-08T11:52:15.370Z,8.40
2023-04-08T11:54:44.813Z,8.40
2023-04-08T11:57:13.292Z,8.60
2023-04-08T11:59:41.710Z,8.70
2023-04-08T12:02:10.789Z,8.60
2023-04-08T12:04:40.225Z,8.50
2023-04-08T12:07:08.794Z,8.30
2023-04-08T12:09:37.157Z,8.30
2023-04-08T12:12:05.606Z,8.30
2023-04-08T12:14:33.973Z,8.00
2023-04-08T12:17:02.364Z,7.90
2023-04-08T12:19:33.019Z,8.10
2023-04-08T12:22:02.166Z,7.90
2023-04-08T12:24:30.793Z,7.80
2023-04-08T12:26:59.753Z,7.80
2023-04-08T12:29:28.660Z,7.60
2023-04-08T12:31:57.193Z,7.70
2023-04-08T12:34:25.787Z,7.60
2023-04-08T12:36:54.279Z,7.50
2023-04-08T12:39:23.164Z,7.50
2023-04-08T12:41:51.797Z,7.50
2023-04-08T12:44:20.180Z,7.50
2023-04-08T12:46:48.701Z,7.50
2023-04-08T12:49:17.124Z,7.50
2023-04-08T12:51:45.571Z,7.60
2023-04-08T12:54:14.002Z,7.50
2023-04-08T12:56:44.057Z,7.60
2023-04-08T12:59:12.472Z,7.60
2023-04-08T13:01:40.968Z,7.50
2023-04-08T13:04:09.453Z,7.50
2023-04-08T13:06:37.939Z,7.50
2023-04-08T13:09:06.365Z,7.50
2023-04-08T13:11:34.968Z,7.50
2023-04-08T13:14:03.344Z,7.40
2023-04-08T13:16:31.888Z,7.50
2023-04-08T13:19:00.278Z,7.60
2023-04-08T13:21:28.912Z,8.00
2023-04-08T13:23:57.351Z,7.70
2023-04-08T13:26:25.740Z,7.90
2023-04-08T13:28:59.984Z,7.90
2023-04-08T13:31:28.961Z,7.60
2023-04-08T13:33:58.372Z,7.70
2023-04-08T13:36:29.410Z,7.80
2023-04-08T13:38:58.038Z,7.80
2023-04-08T13:41:26.959Z,7.90
2023-04-08T13:43:55.972Z,7.90
2023-04-08T13:46:24.503Z,7.80
2023-04-08T13:48:53.332Z,7.60
2023-04-08T13:51:21.995Z,7.50
2023-04-08T13:53:50.399Z,7.50
2023-04-08T13:56:18.761Z,7.50
2023-04-08T13:58:52.536Z,7.50
2023-04-08T14:01:25.609Z,7.50
2023-04-08T14:03:54.163Z,7.50
2023-04-08T14:06:22.728Z,7.40
2023-04-08T14:08:51.484Z,7.30
2023-04-08T14:11:20.210Z,7.50
2023-04-08T14:13:48.666Z,7.50
2023-04-08T14:16:17.715Z,7.50
2023-04-08T14:18:46.335Z,7.60
2023-04-08T14:21:16.519Z,7.50
2023-04-08T14:23:44.933Z,7.50
2023-04-08T14:26:13.370Z,7.60
2023-04-08T14:28:41.887Z,7.60
2023-04-08T14:31:10.319Z,7.40
2023-04-08T14:33:39.998Z,7.60
2023-04-08T14:36:08.849Z,7.60
2023-04-08T14:38:37.617Z,7.70
2023-04-08T14:41:06.121Z,7.70
2023-04-08T14:43:34.524Z,7.80
2023-04-08T14:46:03.151Z,8.10
2023-04-08T14:48:31.842Z,8.00
2023-04-08T14:51:00.855Z,8.00
2023-04-08T14:53:29.246Z,8.10
2023-04-08T14:55:57.745Z,8.20
2023-04-08T14:58:26.276Z,8.20
2023-04-08T15:00:54.950Z,8.20
2023-04-08T15:03:23.679Z,8.20
2023-04-08T15:05:52.141Z,8.30
2023-04-08T15:08:20.531Z,8.50
2023-04-08T15:10:48.966Z,8.50
2023-04-08T15:13:17.524Z,8.40
2023-04-08T15:15:45.980Z,8.40
2023-04-08T15:18:14.486Z,8.70
2023-04-08T15:20:43.262Z,8.80
2023-04-08T15:23:12.507Z,8.90
2023-04-08T15:25:41.201Z,9.20
2023-04-08T15:28:09.648Z,9.10
2023-04-08T15:30:38.025Z,9.30
2023-04-08T15:33:07.047Z,9.10
2023-04-08T15:35:35.614Z,9.10
2023-04-08T15:38:04.023Z,9.10
2023-04-08T15:40:35.153Z,9.30
2023-04-08T15:43:04.673Z,9.30
2023-04-08T15:45:34.318Z,9.30
2023-04-08T15:48:02.849Z,9.30
2023-04-08T15:50:31.644Z,9.30
2023-04-08T15:53:00.109Z,9.30
2023-04-08T15:55:28.610Z,9.50
2023-04-08T15:57:57.958Z,9.70
2023-04-08T16:00:26.816Z,9.80
2023-04-08T16:02:55.318Z,9.90
2023-04-08T16:05:23.938Z,10.10
2023-04-08T16:07:52.679Z,10.00
2023-04-08T16:10:21.118Z,10.20
2023-04-08T16:12:50.120Z,10.20
2023-04-08T16:15:18.511Z,10.30
2023-04-08T16:17:52.791Z,10.40
2023-04-08T16:20:21.835Z,10.70
2023-04-08T16:22:51.077Z,10.60
2023-04-08T16:25:19.609Z,10.60
2023-04-08T16:27:51.040Z,11.10
2023-04-08T16:30:19.447Z,11.00
2023-04-08T16:32:47.981Z,10.90
2023-04-08T16:35:17.792Z,10.70
2023-04-08T16:37:46.167Z,10.80
2023-04-08T16:40:14.649Z,11.00
2023-04-08T16:42:43.393Z,10.50
2023-04-08T16:45:12.197Z,10.60
2023-04-08T16:47:42.529Z,10.30
2023-04-08T16:50:11.158Z,10.30
2023-04-08T16:52:39.617Z,10.50
2023-04-08T16:55:08.690Z,10.20
2023-04-08T16:57:37.297Z,10.40
2023-04-08T17:00:06.320Z,10.50
2023-04-08T17:02:34.729Z,10.40
2023-04-08T17:05:03.347Z,10.40
2023-04-08T17:07:32.039Z,10.30
2023-04-08T17:10:00.500Z,10.50
2023-04-08T17:12:28.962Z,10.40
2023-04-08T17:14:57.477Z,10.40
2023-04-08T17:17:26.157Z,10.40
2023-04-08T17:19:54.609Z,10.70
2023-04-08T17:22:23.009Z,11.00
2023-04-08T17:24:51.598Z,11.10
2023-04-08T17:27:20.253Z,10.90
2023-04-08T17:29:48.693Z,10.70
2023-04-08T17:32:17.227Z,11.00
2023-04-08T17:34:45.604Z,11.40
2023-04-08T17:37:14.086Z,11.20
2023-04-08T17:39:42.574Z,11.00
2023-04-08T17:42:11.475Z,11.50
2023-04-08T17:44:42.869Z,11.40
2023-04-08T17:47:11.298Z,11.50
2023-04-08T17:49:39.836Z,11.60
2023-04-08T17:52:08.281Z,11.70
2023-04-08T17:54:36.816Z,11.90
2023-04-08T17:57:05.320Z,12.40
2023-04-08T17:59:33.814Z,12.60
2023-04-08T18:02:02.339Z,12.40
2023-04-08T18:04:31.553Z,12.40
2023-04-08T18:07:00.042Z,12.60
2023-04-08T18:09:28.441Z,12.60
2023-04-08T18:11:56.883Z,12.70
2023-04-08T18:14:25.364Z,12.90
2023-04-08T18:16:53.874Z,12.80
2023-04-08T18:19:22.546Z,12.80
2023-04-08T18:21:51.267Z,12.90
2023-04-08T18:24:20.981Z,13.20
2023-04-08T18:27:01.408Z,12.70
2023-04-08T18:29:32.304Z,12.50
2023-04-08T18:32:00.711Z,12.90
2023-04-08T18:34:29.076Z,13.20
2023-04-08T18:36:57.622Z,13.30
2023-04-08T18:39:26.244Z,13.40
2023-04-08T18:41:54.635Z,13.60
2023-04-08T18:44:24.186Z,13.20
2023-04-08T18:46:52.608Z,13.00
2023-04-08T18:49:20.990Z,13.30
2023-04-08T18:52:01.263Z,13.30
2023-04-08T18:54:30.695Z,13.70
2023-04-08T18:56:59.799Z,13.40
2023-04-08T18:59:31.227Z,13.30
2023-04-08T19:01:59.798Z,13.50
2023-04-08T19:04:28.440Z,13.60
2023-04-08T19:06:57.226Z,13.60
2023-04-08T19:09:25.602Z,14.10
2023-04-08T19:11:54.346Z,14.50
2023-04-08T19:14:22.951Z,15.20
2023-04-08T19:16:51.448Z,15.10
2023-04-08T19:19:19.895Z,15.20
2023-04-08T19:21:49.609Z,15.00
2023-04-08T19:24:18.010Z,14.80
2023-04-08T19:26:46.620Z,14.90
2023-04-08T19:29:15.066Z,14.50
2023-04-08T19:31:43.599Z,14.70
2023-04-08T19:34:12.094Z,14.90
2023-04-08T19:36:40.506Z,15.30
2023-04-08T19:39:08.960Z,15.40
2023-04-08T19:41:37.554Z,16.10
2023-04-08T19:44:06.261Z,15.80
2023-04-08T19:46:34.822Z,16.10
2023-04-08T19:49:03.407Z,16.10
2023-04-08T19:51:33.585Z,15.80
2023-04-08T19:54:02.060Z,15.70
2023-04-08T19:56:34.653Z,16.20
2023-04-08T19:59:03.419Z,16.20
2023-04-08T20:01:32.233Z,16.30
2023-04-08T20:04:00.802Z,16.10
2023-04-08T20:06:29.340Z,16.00
2023-04-08T20:08:58.055Z,16.00
2023-04-08T20:11:26.474Z,16.00
2023-04-08T20:13:54.999Z,16.10
2023-04-08T20:16:23.704Z,16.00
2023-04-08T20:18:52.445Z,15.80
2023-04-08T20:21:21.023Z,15.70
2023-04-08T20:23:50.112Z,15.20
2023-04-08T20:26:18.572Z,15.20
2023-04-08T20:28:47.336Z,15.30
2023-04-08T20:31:16.823Z,15.50
2023-04-08T20:33:46.239Z,15.60
2023-04-08T20:36:14.789Z,15.50
2023-04-08T20:38:43.362Z,15.40
2023-04-08T20:41:12.179Z,15.20
2023-04-08T20:43:40.574Z,14.70
2023-04-08T20:46:09.087Z,14.80
2023-04-08T20:48:37.533Z,15.00
2023-04-08T20:51:06.216Z,15.10
2023-04-08T20:53:35.410Z,15.20
2023-04-08T20:56:05.037Z,15.30
2023-04-08T20:58:33.708Z,14.70
2023-04-08T21:01:02.229Z,14.70
2023-04-08T21:03:30.817Z,14.70
2023-04-08T21:05:59.420Z,14.60
2023-04-08T21:08:27.918Z,14.60
2023-04-08T21:10:56.412Z,14.60
2023-04-08T21:13:24.802Z,14.60
2023-04-08T21:15:53.213Z,14.70
2023-04-08T21:18:21.646Z,14.70
2023-04-08T21:20:50.748Z,14.50
2023-04-08T21:23:19.191Z,14.70
2023-04-08T21:25:47.810Z,15.00
2023-04-08T21:28:16.330Z,14.70
2023-04-08T21:30:44.756Z,14.90
2023-04-08T21:33:13.191Z,15.10
2023-04-08T21:35:41.862Z,15.50
2023-04-08T21:38:10.419Z,15.70
2023-04-08T21:40:38.786Z,15.60
2023-04-08T21:43:07.502Z,15.30
2023-04-08T21:45:36.049Z,14.60
2023-04-08T21:48:04.475Z,14.80
2023-04-08T21:50:33.247Z,14.90
2023-04-08T21:53:01.824Z,14.90
2023-04-08T21:55:30.259Z,14.60
2023-04-08T21:57:58.636Z,14.60
2023-04-08T22:00:27.569Z,14.60
2023-04-08T22:02:56.254Z,14.60
2023-04-08T22:05:24.699Z,15.00
2023-04-08T22:07:53.566Z,15.00
2023-04-08T22:10:22.097Z,15.00
2023-04-08T22:12:50.491Z,15.30
2023-04-08T22:15:18.912Z,15.30
2023-04-08T22:17:47.311Z,15.00
2023-04-08T22:20:15.768Z,15.30
2023-04-08T22:22:44.318Z,15.30
2023-04-08T22:25:13.017Z,15.40
2023-04-08T22:27:41.662Z,15.40
2023-04-08T22:30:10.545Z,15.50
2023-04-08T22:32:39.003Z,15.30
2023-04-08T22:35:07.836Z,15.20
2023-04-08T22:37:36.334Z,15.30
2023-04-08T22:40:04.940Z,15.10
2023-04-08T22:42:33.332Z,15.00
2023-04-08T22:45:01.821Z,14.80
2023-04-08T22:47:30.232Z,14.90
2023-04-08T22:49:58.758Z,14.90
2023-04-08T22:52:27.241Z,14.90
2023-04-08T22:54:55.663Z,14.90
2023-04-08T22:57:24.078Z,14.60
2023-04-08T22:59:52.521Z,14.70
2023-04-08T23:02:20.998Z,14.90
2023-04-08T23:04:49.449Z,15.20
2023-04-08T23:07:17.867Z,15.30
2023-04-08T23:09:46.239Z,15.20
2023-04-08T23:12:14.616Z,15.20
2023-04-08T23:14:43.092Z,15.20
2023-04-08T23:17:11.494Z,15.40
2023-04-08T23:19:39.982Z,15.30
2023-04-08T23:22:08.383Z,15.30
2023-04-08T23:24:37.145Z,14.90
2023-04-08T23:27:05.697Z,15.00
2023-04-08T23:29:34.245Z,15.10
2023-04-08T23:32:02.662Z,15.00
2023-04-08T23:34:31.201Z,14.70
2023-04-08T23:36:59.614Z,14.60
2023-04-08T23:39:28.016Z,15.00
2023-04-08T23:41:57.703Z,14.90
2023-04-08T23:44:26.265Z,14.90
2023-04-08T23:46:54.706Z,14.90
2023-04-08T23:49:23.189Z,14.70
2023-04-08T23:51:51.633Z,14.10
2023-04-08T23:54:20.039Z,14.00
2023-04-08T23:56:48.422Z,14.10
2023-04-08T23:59:17.029Z,13.70
